BDA403 VIDP-VOBL
Flight info
| Callsign | BDA403 |
|---|---|
| Flight time | 2h 18m |
| Altitude | 34000 |
| Route | AKRIB7E AKRIB W19 IKAVA/N0468F350 W19 BPL/N0442F250 J3 HIA/N0468F350 Q21 LURGI/N0463F360 Q21 TELUV TELUV7F |
| Aircraft | B752/M-SDE3FGHIM3RWXY/LB1 |
Departure
| Time | 2026-05-04 23:06 |
|---|---|
| Airport | Indira Gandhi International Airport (VIDP) |
Arrival
| Time | 2026-05-05 01:25 |
|---|---|
| Airport | Kempegowda International Airport Bengaluru (VOBL) |
| Time | Latitude | Longitude | Altitude | Speed | Heading |
|---|---|---|---|---|---|
| 2026-05-04 22:41 | 28.55828 | 77.09895 | 783 ft | 0 kts | 195° |
| 2026-05-04 23:00 | 28.55822 | 77.09887 | 782 ft | 3 kts | 253° |
| 2026-05-04 23:00 | 28.55858 | 77.09881 | 782 ft | 10 kts | 26° |
| 2026-05-04 23:01 | 28.55901 | 77.09900 | 782 ft | 3 kts | 340° |
| 2026-05-04 23:01 | 28.55945 | 77.09817 | 782 ft | 20 kts | 289° |
| 2026-05-04 23:01 | 28.55983 | 77.09660 | 782 ft | 20 kts | 284° |
| 2026-05-04 23:01 | 28.56016 | 77.09515 | 782 ft | 18 kts | 284° |
| 2026-05-04 23:02 | 28.56047 | 77.09382 | 782 ft | 16 kts | 284° |
| 2026-05-04 23:02 | 28.56074 | 77.09264 | 782 ft | 14 kts | 285° |
| 2026-05-04 23:02 | 28.56093 | 77.09163 | 782 ft | 12 kts | 283° |
| 2026-05-04 23:02 | 28.56117 | 77.09081 | 782 ft | 10 kts | 308° |
| 2026-05-04 23:03 | 28.56218 | 77.09066 | 782 ft | 22 kts | 12° |
| 2026-05-04 23:03 | 28.56384 | 77.09098 | 782 ft | 24 kts | 354° |
| 2026-05-04 23:03 | 28.56546 | 77.09067 | 782 ft | 22 kts | 349° |
| 2026-05-04 23:03 | 28.56688 | 77.09036 | 782 ft | 20 kts | 349° |
| 2026-05-04 23:04 | 28.56819 | 77.09007 | 782 ft | 17 kts | 349° |
| 2026-05-04 23:04 | 28.56936 | 77.08982 | 782 ft | 16 kts | 349° |
| 2026-05-04 23:04 | 28.57028 | 77.08961 | 782 ft | 4 kts | 356° |
| 2026-05-04 23:04 | 28.57043 | 77.08968 | 782 ft | 2 kts | 39° |
| 2026-05-04 23:05 | 28.57051 | 77.08981 | 782 ft | 2 kts | 72° |
| 2026-05-04 23:05 | 28.57053 | 77.08997 | 782 ft | 0 kts | 91° |
| 2026-05-04 23:05 | 28.57052 | 77.09000 | 782 ft | 0 kts | 91° |
| 2026-05-04 23:05 | 28.57049 | 77.09175 | 782 ft | 58 kts | 91° |
| 2026-05-04 23:06 | 28.57030 | 77.09939 | 783 ft | 133 kts | 91° |
| 2026-05-04 23:06 | 28.57003 | 77.11239 | 941 ft | 184 kts | 91° |
| 2026-05-04 23:06 | 28.56954 | 77.12791 | 1535 ft | 211 kts | 92° |
| 2026-05-04 23:06 | 28.56912 | 77.14600 | 2055 ft | 241 kts | 92° |
| 2026-05-04 23:07 | 28.56866 | 77.16544 | 2726 ft | 254 kts | 92° |
| 2026-05-04 23:07 | 28.56818 | 77.18569 | 3538 ft | 259 kts | 92° |
| 2026-05-04 23:07 | 28.56769 | 77.20627 | 4290 ft | 266 kts | 92° |
| 2026-05-04 23:07 | 28.56718 | 77.22739 | 5122 ft | 270 kts | 92° |
| 2026-05-04 23:08 | 28.56667 | 77.24876 | 5859 ft | 276 kts | 93° |
| 2026-05-04 23:08 | 28.56613 | 77.27080 | 6593 ft | 282 kts | 93° |
| 2026-05-04 23:08 | 28.56560 | 77.29254 | 7470 ft | 280 kts | 93° |
| 2026-05-04 23:08 | 28.56505 | 77.31472 | 8257 ft | 283 kts | 92° |
| 2026-05-04 23:09 | 28.56449 | 77.33699 | 9017 ft | 286 kts | 93° |
| 2026-05-04 23:09 | 28.56390 | 77.35959 | 9776 ft | 288 kts | 95° |
| 2026-05-04 23:09 | 28.55945 | 77.38237 | 10037 ft | 301 kts | 115° |
| 2026-05-04 23:09 | 28.54839 | 77.40203 | 10012 ft | 294 kts | 134° |
| 2026-05-04 23:10 | 28.53201 | 77.41528 | 10025 ft | 287 kts | 160° |
| 2026-05-04 23:10 | 28.51255 | 77.41879 | 10039 ft | 288 kts | 186° |
| 2026-05-04 23:10 | 28.49342 | 77.41194 | 10036 ft | 288 kts | 213° |
| 2026-05-04 23:10 | 28.47829 | 77.39748 | 10026 ft | 289 kts | 222° |
| 2026-05-04 23:11 | 28.46274 | 77.38260 | 10002 ft | 286 kts | 217° |
| 2026-05-04 23:11 | 28.44689 | 77.36900 | 9995 ft | 284 kts | 216° |
| 2026-05-04 23:11 | 28.43068 | 77.35581 | 10004 ft | 286 kts | 215° |
| 2026-05-04 23:11 | 28.41440 | 77.34305 | 9998 ft | 286 kts | 214° |
| 2026-05-04 23:12 | 28.39783 | 77.33028 | 9999 ft | 285 kts | 214° |
| 2026-05-04 23:12 | 28.38121 | 77.31763 | 10000 ft | 287 kts | 214° |
| 2026-05-04 23:12 | 28.36467 | 77.30516 | 9996 ft | 287 kts | 214° |
| 2026-05-04 23:12 | 28.34794 | 77.29257 | 9995 ft | 285 kts | 214° |
| 2026-05-04 23:13 | 28.33220 | 77.27935 | 9994 ft | 285 kts | 220° |
| 2026-05-04 23:13 | 28.31698 | 77.26475 | 9995 ft | 286 kts | 220° |
| 2026-05-04 23:13 | 28.30158 | 77.25017 | 9993 ft | 287 kts | 220° |
| 2026-05-04 23:13 | 28.28628 | 77.23566 | 9993 ft | 286 kts | 221° |
| 2026-05-04 23:14 | 28.27103 | 77.22119 | 9990 ft | 286 kts | 220° |
| 2026-05-04 23:14 | 28.25565 | 77.20660 | 9996 ft | 285 kts | 221° |
| 2026-05-04 23:14 | 28.23881 | 77.19426 | 10053 ft | 296 kts | 205° |
| 2026-05-04 23:14 | 28.21967 | 77.18501 | 10633 ft | 306 kts | 206° |
| 2026-05-04 23:15 | 28.19961 | 77.17499 | 10880 ft | 326 kts | 206° |
| 2026-05-04 23:15 | 28.17801 | 77.16438 | 11169 ft | 345 kts | 205° |
| 2026-05-04 23:15 | 28.15543 | 77.15337 | 11476 ft | 361 kts | 205° |
| 2026-05-04 23:15 | 28.13227 | 77.14217 | 12205 ft | 363 kts | 206° |
| 2026-05-04 23:16 | 28.10892 | 77.13088 | 12870 ft | 366 kts | 206° |
| 2026-05-04 23:16 | 28.08527 | 77.11945 | 13448 ft | 372 kts | 206° |
| 2026-05-04 23:16 | 28.06167 | 77.10805 | 14110 ft | 374 kts | 206° |
| 2026-05-04 23:16 | 28.03773 | 77.09650 | 14804 ft | 375 kts | 206° |
| 2026-05-04 23:17 | 28.01357 | 77.08485 | 15445 ft | 377 kts | 206° |
| 2026-05-04 23:17 | 27.98948 | 77.07324 | 16043 ft | 380 kts | 206° |
| 2026-05-04 23:17 | 27.96505 | 77.06147 | 16634 ft | 383 kts | 206° |
| 2026-05-04 23:17 | 27.94044 | 77.04962 | 17281 ft | 384 kts | 206° |
| 2026-05-04 23:18 | 27.91601 | 77.03787 | 17850 ft | 387 kts | 206° |
| 2026-05-04 23:18 | 27.89094 | 77.02582 | 18407 ft | 390 kts | 206° |
| 2026-05-04 23:18 | 27.86597 | 77.01381 | 18950 ft | 393 kts | 206° |
| 2026-05-04 23:18 | 27.84089 | 77.00176 | 19460 ft | 397 kts | 206° |
| 2026-05-04 23:19 | 27.81544 | 76.98954 | 19965 ft | 400 kts | 206° |
| 2026-05-04 23:19 | 27.78942 | 76.97705 | 20507 ft | 402 kts | 206° |
| 2026-05-04 23:19 | 27.76391 | 76.96483 | 20979 ft | 405 kts | 206° |
| 2026-05-04 23:19 | 27.73770 | 76.95225 | 21404 ft | 410 kts | 206° |
| 2026-05-04 23:20 | 27.71140 | 76.93966 | 21965 ft | 410 kts | 206° |
| 2026-05-04 23:20 | 27.68498 | 76.92700 | 22362 ft | 415 kts | 206° |
| 2026-05-04 23:20 | 27.65827 | 76.91422 | 22858 ft | 416 kts | 206° |
| 2026-05-04 23:20 | 27.63138 | 76.90136 | 23280 ft | 420 kts | 206° |
| 2026-05-04 23:21 | 27.60463 | 76.88857 | 23781 ft | 421 kts | 206° |
| 2026-05-04 23:21 | 27.57755 | 76.87564 | 24296 ft | 421 kts | 206° |
| 2026-05-04 23:21 | 27.55042 | 76.86268 | 24668 ft | 426 kts | 206° |
| 2026-05-04 23:21 | 27.52335 | 76.84976 | 25196 ft | 425 kts | 206° |
| 2026-05-04 23:22 | 27.49603 | 76.83672 | 25593 ft | 428 kts | 206° |
| 2026-05-04 23:22 | 27.46849 | 76.82359 | 25941 ft | 431 kts | 206° |
| 2026-05-04 23:22 | 27.44067 | 76.81034 | 26425 ft | 431 kts | 206° |
| 2026-05-04 23:22 | 27.41248 | 76.79855 | 26703 ft | 437 kts | 199° |
| 2026-05-04 23:23 | 27.38275 | 76.79024 | 27095 ft | 439 kts | 197° |
| 2026-05-04 23:23 | 27.35299 | 76.78207 | 27468 ft | 441 kts | 197° |
| 2026-05-04 23:23 | 27.32324 | 76.77397 | 27849 ft | 442 kts | 197° |
| 2026-05-04 23:23 | 27.29305 | 76.76580 | 28171 ft | 444 kts | 197° |
| 2026-05-04 23:24 | 27.26272 | 76.75761 | 28542 ft | 445 kts | 197° |
| 2026-05-04 23:24 | 27.23285 | 76.74957 | 28807 ft | 448 kts | 197° |
| 2026-05-04 23:24 | 27.20222 | 76.74134 | 29167 ft | 448 kts | 197° |
| 2026-05-04 23:24 | 27.17192 | 76.73322 | 29407 ft | 452 kts | 198° |
| 2026-05-04 23:25 | 27.14082 | 76.72488 | 29671 ft | 454 kts | 198° |
| 2026-05-04 23:25 | 27.10994 | 76.71661 | 29833 ft | 458 kts | 198° |
| 2026-05-04 23:25 | 27.07884 | 76.70828 | 30095 ft | 459 kts | 198° |
| 2026-05-04 23:25 | 27.04793 | 76.70003 | 30360 ft | 461 kts | 198° |
| 2026-05-04 23:26 | 27.01652 | 76.69164 | 30543 ft | 464 kts | 198° |
| 2026-05-04 23:26 | 26.98510 | 76.68325 | 30872 ft | 463 kts | 198° |
| 2026-05-04 23:26 | 26.95367 | 76.67487 | 31163 ft | 463 kts | 198° |
| 2026-05-04 23:26 | 26.92219 | 76.66647 | 31419 ft | 463 kts | 199° |
| 2026-05-04 23:27 | 26.89041 | 76.65801 | 31745 ft | 462 kts | 199° |
| 2026-05-04 23:27 | 26.85916 | 76.64968 | 31966 ft | 463 kts | 199° |
| 2026-05-04 23:27 | 26.82781 | 76.64132 | 32129 ft | 465 kts | 199° |
| 2026-05-04 23:27 | 26.79642 | 76.63298 | 32447 ft | 463 kts | 199° |
| 2026-05-04 23:28 | 26.76479 | 76.62457 | 32668 ft | 464 kts | 200° |
| 2026-05-04 23:28 | 26.73353 | 76.61625 | 32849 ft | 464 kts | 200° |
| 2026-05-04 23:28 | 26.70196 | 76.60786 | 33226 ft | 462 kts | 200° |
| 2026-05-04 23:28 | 26.67084 | 76.59959 | 33374 ft | 464 kts | 200° |
| 2026-05-04 23:29 | 26.63911 | 76.59117 | 33613 ft | 464 kts | 200° |
| 2026-05-04 23:29 | 26.60770 | 76.58285 | 33858 ft | 463 kts | 200° |
| 2026-05-04 23:29 | 26.54481 | 76.56617 | 33838 ft | 462 kts | 200° |
| 2026-05-04 23:30 | 26.48258 | 76.54970 | 33853 ft | 460 kts | 200° |
| 2026-05-04 23:30 | 26.41998 | 76.53325 | 33838 ft | 461 kts | 200° |
| 2026-05-04 23:31 | 26.35738 | 76.51687 | 33845 ft | 461 kts | 200° |
| 2026-05-04 23:31 | 26.29511 | 76.50060 | 33828 ft | 460 kts | 200° |
| 2026-05-04 23:32 | 26.23247 | 76.48425 | 33826 ft | 462 kts | 200° |
| 2026-05-04 23:32 | 26.16945 | 76.46781 | 33839 ft | 463 kts | 200° |
| 2026-05-04 23:33 | 26.10678 | 76.45150 | 33837 ft | 461 kts | 200° |
| 2026-05-04 23:33 | 26.04389 | 76.43514 | 33859 ft | 462 kts | 200° |
| 2026-05-04 23:34 | 25.98123 | 76.41885 | 33853 ft | 463 kts | 200° |
| 2026-05-04 23:34 | 25.91733 | 76.40775 | 33848 ft | 474 kts | 187° |
| 2026-05-04 23:35 | 25.85087 | 76.41850 | 33855 ft | 490 kts | 169° |
| 2026-05-04 23:35 | 25.78548 | 76.44162 | 33831 ft | 492 kts | 168° |
| 2026-05-04 23:36 | 25.72006 | 76.46484 | 33834 ft | 493 kts | 168° |
| 2026-05-04 23:36 | 25.65490 | 76.48804 | 33839 ft | 491 kts | 168° |
| 2026-05-04 23:37 | 25.58971 | 76.51126 | 33848 ft | 491 kts | 168° |
| 2026-05-04 23:37 | 25.52461 | 76.53442 | 33847 ft | 490 kts | 168° |
| 2026-05-04 23:38 | 25.45990 | 76.55742 | 33854 ft | 490 kts | 168° |
| 2026-05-04 23:38 | 25.39455 | 76.58063 | 33858 ft | 492 kts | 168° |
| 2026-05-04 23:39 | 25.32945 | 76.60372 | 33854 ft | 491 kts | 168° |
| 2026-05-04 23:39 | 25.26448 | 76.62674 | 33862 ft | 490 kts | 168° |
| 2026-05-04 23:40 | 25.19928 | 76.64982 | 33867 ft | 490 kts | 168° |
| 2026-05-04 23:40 | 25.13411 | 76.67285 | 33875 ft | 491 kts | 168° |
| 2026-05-04 23:41 | 25.06848 | 76.69602 | 33871 ft | 492 kts | 168° |
| 2026-05-04 23:41 | 25.00358 | 76.71892 | 33878 ft | 491 kts | 168° |
| 2026-05-04 23:42 | 24.93834 | 76.74236 | 33883 ft | 491 kts | 168° |
| 2026-05-04 23:42 | 24.87299 | 76.76584 | 33878 ft | 490 kts | 168° |
| 2026-05-04 23:43 | 24.80818 | 76.78909 | 33882 ft | 490 kts | 168° |
| 2026-05-04 23:43 | 24.74319 | 76.81239 | 33881 ft | 491 kts | 168° |
| 2026-05-04 23:44 | 24.67798 | 76.83573 | 33887 ft | 492 kts | 168° |
| 2026-05-04 23:44 | 24.61304 | 76.85896 | 33880 ft | 490 kts | 168° |
| 2026-05-04 23:45 | 24.54799 | 76.88219 | 33885 ft | 492 kts | 168° |
| 2026-05-04 23:45 | 24.48268 | 76.90550 | 33885 ft | 490 kts | 167° |
| 2026-05-04 23:46 | 24.41794 | 76.92859 | 33888 ft | 489 kts | 167° |
| 2026-05-04 23:46 | 24.35292 | 76.95212 | 33884 ft | 491 kts | 167° |
| 2026-05-04 23:47 | 24.28776 | 76.97574 | 33889 ft | 490 kts | 167° |
| 2026-05-04 23:47 | 24.22291 | 76.99921 | 33890 ft | 491 kts | 167° |
| 2026-05-04 23:48 | 24.15791 | 77.02271 | 33881 ft | 490 kts | 167° |
| 2026-05-04 23:48 | 24.09290 | 77.04618 | 33878 ft | 489 kts | 167° |
| 2026-05-04 23:49 | 24.02830 | 77.06949 | 33876 ft | 490 kts | 167° |
| 2026-05-04 23:49 | 23.96320 | 77.09295 | 33871 ft | 489 kts | 167° |
| 2026-05-04 23:50 | 23.89813 | 77.11636 | 33876 ft | 491 kts | 167° |
| 2026-05-04 23:50 | 23.83334 | 77.13967 | 33875 ft | 491 kts | 167° |
| 2026-05-04 23:51 | 23.76815 | 77.16309 | 33868 ft | 489 kts | 167° |
| 2026-05-04 23:51 | 23.70334 | 77.18635 | 33889 ft | 488 kts | 167° |
| 2026-05-04 23:52 | 23.63887 | 77.20946 | 33891 ft | 488 kts | 167° |
| 2026-05-04 23:52 | 23.57394 | 77.23270 | 33896 ft | 489 kts | 167° |
| 2026-05-04 23:53 | 23.50964 | 77.25571 | 33896 ft | 487 kts | 167° |
| 2026-05-04 23:53 | 23.44500 | 77.27880 | 33893 ft | 488 kts | 167° |
| 2026-05-04 23:54 | 23.38012 | 77.30196 | 33890 ft | 489 kts | 167° |
| 2026-05-04 23:54 | 23.31651 | 77.32465 | 33873 ft | 488 kts | 167° |
| 2026-05-04 23:55 | 23.25124 | 77.34294 | 33882 ft | 478 kts | 176° |
| 2026-05-04 23:56 | 23.15264 | 77.36239 | 33883 ft | 479 kts | 175° |
| 2026-05-04 23:56 | 23.08666 | 77.37543 | 33885 ft | 480 kts | 175° |
| 2026-05-04 23:57 | 23.02061 | 77.38847 | 33884 ft | 481 kts | 175° |
| 2026-05-04 23:57 | 22.95476 | 77.40145 | 33883 ft | 480 kts | 175° |
| 2026-05-04 23:58 | 22.88840 | 77.41452 | 33881 ft | 480 kts | 175° |
| 2026-05-04 23:58 | 22.82280 | 77.42743 | 33875 ft | 480 kts | 175° |
| 2026-05-04 23:59 | 22.75695 | 77.44038 | 33864 ft | 478 kts | 175° |
| 2026-05-04 23:59 | 22.69167 | 77.45320 | 33859 ft | 477 kts | 175° |
| 2026-05-05 00:00 | 22.62598 | 77.46608 | 33859 ft | 478 kts | 175° |
| 2026-05-05 00:00 | 22.56057 | 77.47890 | 33856 ft | 478 kts | 175° |
| 2026-05-05 00:01 | 22.49469 | 77.49180 | 33852 ft | 479 kts | 175° |
| 2026-05-05 00:01 | 22.42926 | 77.50460 | 33854 ft | 477 kts | 175° |
| 2026-05-05 00:02 | 22.36374 | 77.51741 | 33863 ft | 478 kts | 175° |
| 2026-05-05 00:02 | 22.29842 | 77.53017 | 33877 ft | 476 kts | 175° |
| 2026-05-05 00:03 | 22.23313 | 77.54291 | 33895 ft | 475 kts | 175° |
| 2026-05-05 00:03 | 22.16807 | 77.55558 | 33911 ft | 475 kts | 175° |
| 2026-05-05 00:04 | 22.10244 | 77.56834 | 33924 ft | 475 kts | 175° |
| 2026-05-05 00:04 | 22.03755 | 77.58086 | 33936 ft | 474 kts | 175° |
| 2026-05-05 00:05 | 21.97253 | 77.59338 | 33943 ft | 474 kts | 175° |
| 2026-05-05 00:05 | 21.90759 | 77.60588 | 33939 ft | 475 kts | 175° |
| 2026-05-05 00:06 | 21.84220 | 77.61846 | 33935 ft | 473 kts | 175° |
| 2026-05-05 00:06 | 21.77724 | 77.63094 | 33933 ft | 473 kts | 175° |
| 2026-05-05 00:07 | 21.71231 | 77.64341 | 33929 ft | 474 kts | 175° |
| 2026-05-05 00:07 | 21.64693 | 77.65595 | 33926 ft | 474 kts | 175° |
| 2026-05-05 00:08 | 21.58205 | 77.66838 | 33930 ft | 475 kts | 175° |
| 2026-05-05 00:08 | 21.51647 | 77.68095 | 33945 ft | 474 kts | 175° |
| 2026-05-05 00:09 | 21.45188 | 77.69405 | 33932 ft | 473 kts | 175° |
| 2026-05-05 00:09 | 21.38720 | 77.70721 | 33908 ft | 474 kts | 175° |
| 2026-05-05 00:10 | 21.32136 | 77.72061 | 33881 ft | 476 kts | 174° |
| 2026-05-05 00:10 | 21.25632 | 77.73383 | 33858 ft | 475 kts | 174° |
| 2026-05-05 00:11 | 21.19126 | 77.74706 | 33844 ft | 475 kts | 174° |
| 2026-05-05 00:11 | 21.12638 | 77.76022 | 33843 ft | 474 kts | 174° |
| 2026-05-05 00:12 | 21.06164 | 77.77335 | 33832 ft | 472 kts | 174° |
| 2026-05-05 00:12 | 20.99674 | 77.78648 | 33832 ft | 474 kts | 174° |
| 2026-05-05 00:13 | 20.93165 | 77.79966 | 33830 ft | 475 kts | 174° |
| 2026-05-05 00:13 | 20.86678 | 77.81278 | 33830 ft | 474 kts | 174° |
| 2026-05-05 00:14 | 20.80178 | 77.82591 | 33832 ft | 475 kts | 174° |
| 2026-05-05 00:14 | 20.73663 | 77.83906 | 33840 ft | 474 kts | 174° |
| 2026-05-05 00:15 | 20.67165 | 77.85206 | 33851 ft | 472 kts | 174° |
| 2026-05-05 00:15 | 20.60710 | 77.86453 | 33846 ft | 472 kts | 174° |
| 2026-05-05 00:16 | 20.54239 | 77.87705 | 33841 ft | 471 kts | 174° |
| 2026-05-05 00:16 | 20.47753 | 77.88959 | 33840 ft | 472 kts | 174° |
| 2026-05-05 00:17 | 20.41295 | 77.90205 | 33842 ft | 473 kts | 174° |
| 2026-05-05 00:17 | 20.34807 | 77.91457 | 33840 ft | 472 kts | 174° |
| 2026-05-05 00:18 | 20.28322 | 77.92707 | 33837 ft | 472 kts | 174° |
| 2026-05-05 00:18 | 20.21850 | 77.93953 | 33838 ft | 472 kts | 174° |
| 2026-05-05 00:19 | 20.15381 | 77.95197 | 33836 ft | 472 kts | 174° |
| 2026-05-05 00:19 | 20.08926 | 77.96439 | 33841 ft | 471 kts | 174° |
| 2026-05-05 00:20 | 20.02484 | 77.97676 | 33853 ft | 471 kts | 174° |
| 2026-05-05 00:20 | 19.96006 | 77.98920 | 33850 ft | 471 kts | 174° |
| 2026-05-05 00:21 | 19.89540 | 78.00159 | 33852 ft | 472 kts | 174° |
| 2026-05-05 00:21 | 19.83040 | 78.01405 | 33859 ft | 472 kts | 174° |
| 2026-05-05 00:22 | 19.76593 | 78.02640 | 33863 ft | 472 kts | 174° |
| 2026-05-05 00:22 | 19.70078 | 78.03886 | 33867 ft | 472 kts | 174° |
| 2026-05-05 00:23 | 19.63619 | 78.05120 | 33861 ft | 472 kts | 174° |
| 2026-05-05 00:23 | 19.57143 | 78.06357 | 33866 ft | 473 kts | 174° |
| 2026-05-05 00:24 | 19.50601 | 78.07606 | 33867 ft | 473 kts | 174° |
| 2026-05-05 00:24 | 19.44149 | 78.08836 | 33869 ft | 472 kts | 174° |
| 2026-05-05 00:25 | 19.37657 | 78.10073 | 33867 ft | 472 kts | 174° |
| 2026-05-05 00:25 | 19.31168 | 78.11308 | 33873 ft | 472 kts | 174° |
| 2026-05-05 00:26 | 19.24703 | 78.12528 | 33876 ft | 471 kts | 175° |
| 2026-05-05 00:26 | 19.18207 | 78.13442 | 33872 ft | 471 kts | 176° |
| 2026-05-05 00:27 | 19.11672 | 78.14352 | 33869 ft | 472 kts | 176° |
| 2026-05-05 00:27 | 19.05167 | 78.15260 | 33874 ft | 471 kts | 176° |
| 2026-05-05 00:28 | 18.98661 | 78.16167 | 33870 ft | 470 kts | 176° |
| 2026-05-05 00:28 | 18.92162 | 78.17073 | 33872 ft | 470 kts | 176° |
| 2026-05-05 00:29 | 18.85645 | 78.17982 | 33875 ft | 471 kts | 176° |
| 2026-05-05 00:29 | 18.79170 | 78.18883 | 33881 ft | 469 kts | 176° |
| 2026-05-05 00:30 | 18.72658 | 78.19789 | 33881 ft | 470 kts | 176° |
| 2026-05-05 00:30 | 18.66131 | 78.20697 | 33882 ft | 470 kts | 176° |
| 2026-05-05 00:31 | 18.59661 | 78.21596 | 33878 ft | 468 kts | 176° |
| 2026-05-05 00:31 | 18.53138 | 78.22501 | 33883 ft | 468 kts | 176° |
| 2026-05-05 00:32 | 18.46664 | 78.23399 | 33888 ft | 469 kts | 176° |
| 2026-05-05 00:32 | 18.40198 | 78.24295 | 33893 ft | 469 kts | 175° |
| 2026-05-05 00:33 | 18.33703 | 78.25195 | 33897 ft | 467 kts | 175° |
| 2026-05-05 00:33 | 18.27253 | 78.26087 | 33905 ft | 467 kts | 175° |
| 2026-05-05 00:34 | 18.20775 | 78.26984 | 33908 ft | 467 kts | 175° |
| 2026-05-05 00:34 | 18.14335 | 78.27873 | 33900 ft | 467 kts | 175° |
| 2026-05-05 00:35 | 18.07882 | 78.28765 | 33895 ft | 467 kts | 175° |
| 2026-05-05 00:35 | 18.01421 | 78.29657 | 33890 ft | 467 kts | 175° |
| 2026-05-05 00:36 | 17.94978 | 78.30556 | 33895 ft | 466 kts | 175° |
| 2026-05-05 00:36 | 17.88524 | 78.31457 | 33899 ft | 466 kts | 175° |
| 2026-05-05 00:37 | 17.82109 | 78.32352 | 33912 ft | 465 kts | 175° |
| 2026-05-05 00:37 | 17.75650 | 78.33251 | 33921 ft | 466 kts | 175° |
| 2026-05-05 00:38 | 17.69223 | 78.34146 | 33925 ft | 466 kts | 175° |
| 2026-05-05 00:38 | 17.62797 | 78.35040 | 33923 ft | 466 kts | 175° |
| 2026-05-05 00:39 | 17.56343 | 78.35938 | 33924 ft | 466 kts | 175° |
| 2026-05-05 00:39 | 17.49915 | 78.36831 | 33926 ft | 465 kts | 175° |
| 2026-05-05 00:40 | 17.43466 | 78.37727 | 33924 ft | 465 kts | 175° |
| 2026-05-05 00:40 | 17.37060 | 78.38615 | 33924 ft | 465 kts | 175° |
| 2026-05-05 00:41 | 17.30628 | 78.39507 | 33931 ft | 465 kts | 175° |
| 2026-05-05 00:41 | 17.24199 | 78.40398 | 33927 ft | 464 kts | 175° |
| 2026-05-05 00:42 | 17.17764 | 78.41131 | 33930 ft | 463 kts | 176° |
| 2026-05-05 00:42 | 17.11336 | 78.41819 | 33939 ft | 464 kts | 176° |
| 2026-05-05 00:43 | 17.04901 | 78.42509 | 33939 ft | 464 kts | 176° |
| 2026-05-05 00:43 | 16.98439 | 78.43201 | 33946 ft | 464 kts | 176° |
| 2026-05-05 00:44 | 16.92029 | 78.43887 | 33946 ft | 464 kts | 176° |
| 2026-05-05 00:44 | 16.85570 | 78.44579 | 33939 ft | 463 kts | 176° |
| 2026-05-05 00:45 | 16.79159 | 78.45264 | 33933 ft | 462 kts | 176° |
| 2026-05-05 00:45 | 16.72759 | 78.45947 | 33927 ft | 463 kts | 176° |
| 2026-05-05 00:46 | 16.66353 | 78.46632 | 33921 ft | 463 kts | 176° |
| 2026-05-05 00:46 | 16.59892 | 78.47321 | 33916 ft | 462 kts | 176° |
| 2026-05-05 00:47 | 16.53483 | 78.48005 | 33910 ft | 462 kts | 176° |
| 2026-05-05 00:47 | 16.47070 | 78.48689 | 33905 ft | 462 kts | 176° |
| 2026-05-05 00:48 | 16.40697 | 78.49367 | 33904 ft | 462 kts | 176° |
| 2026-05-05 00:48 | 16.34258 | 78.50053 | 33902 ft | 461 kts | 176° |
| 2026-05-05 00:49 | 16.27860 | 78.50732 | 33906 ft | 461 kts | 176° |
| 2026-05-05 00:49 | 16.21460 | 78.51266 | 33911 ft | 458 kts | 184° |
| 2026-05-05 00:50 | 16.15136 | 78.50482 | 33898 ft | 457 kts | 190° |
| 2026-05-05 00:50 | 16.08827 | 78.49508 | 33894 ft | 455 kts | 191° |
| 2026-05-05 00:51 | 16.02475 | 78.48503 | 33883 ft | 455 kts | 191° |
| 2026-05-05 00:51 | 15.96195 | 78.47501 | 33879 ft | 456 kts | 191° |
| 2026-05-05 00:52 | 15.89895 | 78.46492 | 33874 ft | 456 kts | 191° |
| 2026-05-05 00:52 | 15.83613 | 78.45486 | 33867 ft | 457 kts | 191° |
| 2026-05-05 00:53 | 15.77320 | 78.44479 | 33862 ft | 456 kts | 191° |
| 2026-05-05 00:53 | 15.71046 | 78.43475 | 33862 ft | 456 kts | 191° |
| 2026-05-05 00:54 | 15.64761 | 78.42469 | 33863 ft | 456 kts | 191° |
| 2026-05-05 00:54 | 15.58479 | 78.41465 | 33866 ft | 456 kts | 191° |
| 2026-05-05 00:55 | 15.52180 | 78.40459 | 33865 ft | 456 kts | 190° |
| 2026-05-05 00:55 | 15.45893 | 78.39455 | 33870 ft | 456 kts | 190° |
| 2026-05-05 00:56 | 15.39587 | 78.38448 | 33869 ft | 456 kts | 190° |
| 2026-05-05 00:56 | 15.33277 | 78.37443 | 33867 ft | 456 kts | 190° |
| 2026-05-05 00:57 | 15.26958 | 78.36435 | 33862 ft | 457 kts | 190° |
| 2026-05-05 00:57 | 15.20657 | 78.35429 | 33857 ft | 456 kts | 190° |
| 2026-05-05 00:58 | 15.14405 | 78.34427 | 33862 ft | 456 kts | 190° |
| 2026-05-05 00:58 | 15.08099 | 78.33417 | 33861 ft | 456 kts | 190° |
| 2026-05-05 00:59 | 15.01778 | 78.32404 | 33861 ft | 457 kts | 190° |
| 2026-05-05 00:59 | 14.95500 | 78.31400 | 33860 ft | 456 kts | 190° |
| 2026-05-05 01:00 | 14.89211 | 78.30394 | 33862 ft | 456 kts | 190° |
| 2026-05-05 01:00 | 14.82904 | 78.29386 | 33865 ft | 457 kts | 190° |
| 2026-05-05 01:00 | 14.79738 | 78.28879 | 33457 ft | 459 kts | 190° |
| 2026-05-05 01:01 | 14.76620 | 78.28378 | 33001 ft | 450 kts | 190° |
| 2026-05-05 01:01 | 14.73576 | 78.27891 | 32545 ft | 439 kts | 190° |
| 2026-05-05 01:01 | 14.70533 | 78.27403 | 32109 ft | 435 kts | 190° |
| 2026-05-05 01:01 | 14.67560 | 78.26926 | 31711 ft | 438 kts | 190° |
| 2026-05-05 01:02 | 14.64502 | 78.26435 | 31294 ft | 446 kts | 190° |
| 2026-05-05 01:02 | 14.61440 | 78.25944 | 30891 ft | 450 kts | 190° |
| 2026-05-05 01:02 | 14.58334 | 78.25448 | 30487 ft | 450 kts | 190° |
| 2026-05-05 01:02 | 14.55231 | 78.24951 | 30066 ft | 449 kts | 190° |
| 2026-05-05 01:03 | 14.52107 | 78.24451 | 29605 ft | 451 kts | 190° |
| 2026-05-05 01:03 | 14.49012 | 78.23956 | 29163 ft | 452 kts | 190° |
| 2026-05-05 01:03 | 14.45891 | 78.23457 | 28759 ft | 450 kts | 190° |
| 2026-05-05 01:03 | 14.42780 | 78.22960 | 28266 ft | 449 kts | 190° |
| 2026-05-05 01:04 | 14.39717 | 78.22470 | 27863 ft | 445 kts | 190° |
| 2026-05-05 01:04 | 14.33629 | 78.21497 | 26932 ft | 438 kts | 190° |
| 2026-05-05 01:04 | 14.30615 | 78.21016 | 26526 ft | 432 kts | 190° |
| 2026-05-05 01:05 | 14.27642 | 78.20541 | 25957 ft | 432 kts | 190° |
| 2026-05-05 01:05 | 14.24711 | 78.20073 | 25619 ft | 423 kts | 190° |
| 2026-05-05 01:05 | 14.21801 | 78.19608 | 24973 ft | 424 kts | 190° |
| 2026-05-05 01:05 | 14.18925 | 78.19148 | 24773 ft | 410 kts | 191° |
| 2026-05-05 01:06 | 14.16167 | 78.18443 | 24771 ft | 406 kts | 201° |
| 2026-05-05 01:06 | 14.13505 | 78.17264 | 24550 ft | 422 kts | 206° |
| 2026-05-05 01:06 | 14.10854 | 78.15954 | 23993 ft | 426 kts | 206° |
| 2026-05-05 01:06 | 14.08216 | 78.14645 | 23444 ft | 414 kts | 206° |
| 2026-05-05 01:07 | 14.05637 | 78.13354 | 22902 ft | 402 kts | 206° |
| 2026-05-05 01:07 | 14.03163 | 78.12109 | 22388 ft | 392 kts | 206° |
| 2026-05-05 01:07 | 14.00720 | 78.10877 | 21940 ft | 389 kts | 206° |
| 2026-05-05 01:07 | 13.98282 | 78.09645 | 21451 ft | 394 kts | 206° |
| 2026-05-05 01:08 | 13.95796 | 78.08388 | 20968 ft | 396 kts | 206° |
| 2026-05-05 01:08 | 13.93364 | 78.07156 | 20468 ft | 392 kts | 206° |
| 2026-05-05 01:08 | 13.90918 | 78.05919 | 20030 ft | 385 kts | 206° |
| 2026-05-05 01:08 | 13.88505 | 78.04698 | 19516 ft | 385 kts | 206° |
| 2026-05-05 01:09 | 13.86106 | 78.03484 | 19020 ft | 382 kts | 206° |
| 2026-05-05 01:09 | 13.83731 | 78.02283 | 18549 ft | 380 kts | 206° |
| 2026-05-05 01:09 | 13.81394 | 78.01101 | 18051 ft | 378 kts | 206° |
| 2026-05-05 01:09 | 13.79014 | 77.99898 | 17570 ft | 374 kts | 206° |
| 2026-05-05 01:10 | 13.76702 | 77.98728 | 17083 ft | 373 kts | 206° |
| 2026-05-05 01:10 | 13.74376 | 77.97553 | 16576 ft | 373 kts | 206° |
| 2026-05-05 01:10 | 13.72049 | 77.96376 | 16103 ft | 371 kts | 205° |
| 2026-05-05 01:10 | 13.69727 | 77.95203 | 15670 ft | 373 kts | 205° |
| 2026-05-05 01:11 | 13.67382 | 77.94019 | 15118 ft | 375 kts | 205° |
| 2026-05-05 01:11 | 13.65054 | 77.92844 | 14653 ft | 370 kts | 205° |
| 2026-05-05 01:11 | 13.62757 | 77.91683 | 14294 ft | 364 kts | 205° |
| 2026-05-05 01:11 | 13.60440 | 77.90514 | 13753 ft | 373 kts | 205° |
| 2026-05-05 01:12 | 13.58118 | 77.89342 | 13234 ft | 369 kts | 205° |
| 2026-05-05 01:12 | 13.55832 | 77.88188 | 12771 ft | 364 kts | 205° |
| 2026-05-05 01:12 | 13.53570 | 77.87048 | 12521 ft | 359 kts | 205° |
| 2026-05-05 01:12 | 13.51334 | 77.85921 | 12224 ft | 354 kts | 205° |
| 2026-05-05 01:13 | 13.49122 | 77.84804 | 11633 ft | 359 kts | 206° |
| 2026-05-05 01:13 | 13.46886 | 77.83601 | 11054 ft | 364 kts | 208° |
| 2026-05-05 01:13 | 13.44742 | 77.82233 | 10544 ft | 361 kts | 220° |
| 2026-05-05 01:13 | 13.43048 | 77.80351 | 10054 ft | 354 kts | 239° |
| 2026-05-05 01:14 | 13.42033 | 77.78156 | 9851 ft | 340 kts | 256° |
| 2026-05-05 01:14 | 13.41685 | 77.75802 | 9415 ft | 325 kts | 275° |
| 2026-05-05 01:14 | 13.42060 | 77.73644 | 9191 ft | 294 kts | 296° |
| 2026-05-05 01:14 | 13.43063 | 77.71972 | 9171 ft | 266 kts | 312° |
| 2026-05-05 01:15 | 13.44190 | 77.70405 | 9137 ft | 279 kts | 304° |
| 2026-05-05 01:15 | 13.44986 | 77.68552 | 9109 ft | 285 kts | 287° |
| 2026-05-05 01:15 | 13.45289 | 77.66529 | 9092 ft | 287 kts | 275° |
| 2026-05-05 01:15 | 13.45233 | 77.64484 | 8877 ft | 293 kts | 266° |
| 2026-05-05 01:16 | 13.44899 | 77.62437 | 8717 ft | 287 kts | 259° |
| 2026-05-05 01:16 | 13.44354 | 77.60477 | 8629 ft | 285 kts | 253° |
| 2026-05-05 01:16 | 13.43614 | 77.58550 | 8585 ft | 289 kts | 248° |
| 2026-05-05 01:16 | 13.42714 | 77.56711 | 8547 ft | 291 kts | 243° |
| 2026-05-05 01:17 | 13.41650 | 77.54936 | 8527 ft | 291 kts | 238° |
| 2026-05-05 01:17 | 13.40437 | 77.53238 | 8163 ft | 301 kts | 233° |
| 2026-05-05 01:17 | 13.39068 | 77.51633 | 7711 ft | 297 kts | 227° |
| 2026-05-05 01:17 | 13.37623 | 77.50209 | 7671 ft | 278 kts | 223° |
| 2026-05-05 01:18 | 13.36124 | 77.48946 | 7629 ft | 276 kts | 218° |
| 2026-05-05 01:18 | 13.34583 | 77.47837 | 7611 ft | 262 kts | 213° |
| 2026-05-05 01:18 | 13.33065 | 77.46909 | 7615 ft | 248 kts | 209° |
| 2026-05-05 01:18 | 13.31558 | 77.46128 | 7611 ft | 233 kts | 205° |
| 2026-05-05 01:19 | 13.30111 | 77.45494 | 7451 ft | 224 kts | 201° |
| 2026-05-05 01:19 | 13.28645 | 77.44961 | 7448 ft | 222 kts | 198° |
| 2026-05-05 01:19 | 13.27116 | 77.44508 | 7412 ft | 231 kts | 194° |
| 2026-05-05 01:19 | 13.25552 | 77.44260 | 7415 ft | 228 kts | 172° |
| 2026-05-05 01:20 | 13.24092 | 77.44820 | 7412 ft | 225 kts | 136° |
| 2026-05-05 01:20 | 13.23152 | 77.46079 | 7248 ft | 224 kts | 114° |
| 2026-05-05 01:20 | 13.22418 | 77.47495 | 6993 ft | 223 kts | 116° |
| 2026-05-05 01:20 | 13.21650 | 77.48858 | 6753 ft | 218 kts | 118° |
| 2026-05-05 01:21 | 13.20998 | 77.50237 | 6453 ft | 213 kts | 95° |
| 2026-05-05 01:21 | 13.20916 | 77.51744 | 6209 ft | 212 kts | 87° |
| 2026-05-05 01:21 | 13.20883 | 77.53269 | 5917 ft | 215 kts | 89° |
| 2026-05-05 01:21 | 13.20851 | 77.54783 | 5654 ft | 213 kts | 89° |
| 2026-05-05 01:22 | 13.20829 | 77.56291 | 5366 ft | 213 kts | 89° |
| 2026-05-05 01:22 | 13.20812 | 77.57803 | 5063 ft | 208 kts | 89° |
| 2026-05-05 01:22 | 13.20797 | 77.59251 | 4792 ft | 194 kts | 90° |
| 2026-05-05 01:22 | 13.20785 | 77.60580 | 4562 ft | 176 kts | 90° |
| 2026-05-05 01:23 | 13.20775 | 77.61786 | 4323 ft | 159 kts | 90° |
| 2026-05-05 01:23 | 13.20766 | 77.62872 | 4072 ft | 145 kts | 91° |
| 2026-05-05 01:23 | 13.20757 | 77.63904 | 3905 ft | 148 kts | 91° |
| 2026-05-05 01:23 | 13.20748 | 77.64984 | 3722 ft | 153 kts | 91° |
| 2026-05-05 01:24 | 13.20740 | 77.66067 | 3527 ft | 151 kts | 91° |
| 2026-05-05 01:24 | 13.20731 | 77.67143 | 3328 ft | 149 kts | 92° |
| 2026-05-05 01:24 | 13.20717 | 77.68213 | 3132 ft | 152 kts | 93° |
| 2026-05-05 01:24 | 13.20709 | 77.69263 | 3003 ft | 137 kts | 92° |
| 2026-05-05 01:25 | 13.20702 | 77.70010 | 2993 ft | 82 kts | 90° |
| 2026-05-05 01:25 | 13.20685 | 77.70427 | 2983 ft | 36 kts | 101° |
| 2026-05-05 01:25 | 13.20598 | 77.70612 | 2975 ft | 14 kts | 144° |
| 2026-05-05 01:25 | 13.20538 | 77.70587 | 2977 ft | 8 kts | 243° |
| 2026-05-05 01:26 | 13.20530 | 77.70530 | 2979 ft | 16 kts | 268° |
| 2026-05-05 01:26 | 13.20499 | 77.70412 | 2983 ft | 16 kts | 210° |
| 2026-05-05 01:26 | 13.20397 | 77.70391 | 2983 ft | 14 kts | 182° |
| 2026-05-05 01:26 | 13.20312 | 77.70372 | 2982 ft | 11 kts | 225° |
| 2026-05-05 01:27 | 13.20271 | 77.70319 | 2981 ft | 7 kts | 210° |
| 2026-05-05 01:27 | 13.20221 | 77.70312 | 2979 ft | 7 kts | 180° |
| 2026-05-05 01:27 | 13.20172 | 77.70312 | 2977 ft | 4 kts | 180° |
| 2026-05-05 01:27 | 13.20165 | 77.70312 | 2977 ft | 0 kts | 181° |
| 2026-05-05 01:28 | 13.20163 | 77.70312 | 2977 ft | 0 kts | 181° |